createdAt,value
2023-03-05T00:01:35.845Z,59.20
2023-03-05T00:04:04.988Z,59.21
2023-03-05T00:06:33.712Z,59.35
2023-03-05T00:09:02.062Z,59.50
2023-03-05T00:11:31.708Z,59.61
2023-03-05T00:14:02.007Z,59.67
2023-03-05T00:16:30.646Z,59.68
2023-03-05T00:18:59.692Z,59.76
2023-03-05T00:21:29.963Z,59.85
2023-03-05T00:24:03.518Z,59.93
2023-03-05T00:26:34.727Z,59.77
2023-03-05T00:29:03.169Z,59.75
2023-03-05T00:31:32.123Z,59.83
2023-03-05T00:34:05.826Z,59.89
2023-03-05T00:36:34.352Z,59.90
2023-03-05T00:39:03.284Z,60.11
2023-03-05T00:41:31.357Z,60.28
2023-03-05T00:44:00.095Z,60.34
2023-03-05T00:46:29.476Z,60.36
2023-03-05T00:49:01.453Z,60.26
2023-03-05T00:51:30.180Z,60.20
2023-03-05T00:53:58.242Z,60.09
2023-03-05T00:56:26.513Z,59.92
2023-03-05T00:58:55.196Z,59.86
2023-03-05T01:01:23.359Z,59.89
2023-03-05T01:03:51.754Z,59.91
2023-03-05T01:06:21.273Z,59.65
2023-03-05T01:08:50.143Z,59.58
2023-03-05T01:11:18.707Z,59.58
2023-03-05T01:13:47.122Z,59.30
2023-03-05T01:16:15.841Z,59.33
2023-03-05T01:18:43.973Z,59.34
2023-03-05T01:21:12.106Z,59.10
2023-03-05T01:23:43.242Z,58.68
2023-03-05T01:26:11.695Z,58.53
2023-03-05T01:28:40.598Z,58.04
2023-03-05T01:31:10.416Z,57.91
2023-03-05T01:33:39.332Z,57.98
2023-03-05T01:36:16.020Z,57.97
2023-03-05T01:38:46.729Z,57.92
2023-03-05T01:41:15.585Z,57.58
2023-03-05T01:43:46.220Z,57.52
2023-03-05T01:46:48.208Z,57.50
2023-03-05T01:49:28.024Z,57.58
2023-03-05T01:52:09.837Z,57.58
2023-03-05T01:54:42.902Z,57.46
2023-03-05T01:57:14.362Z,57.46
2023-03-05T01:59:45.835Z,57.31
2023-03-05T02:02:13.927Z,57.25
2023-03-05T02:04:47.217Z,57.17
2023-03-05T02:07:15.897Z,57.27
2023-03-05T02:09:43.979Z,57.00
2023-03-05T02:12:13.597Z,56.71
2023-03-05T02:14:43.133Z,56.64
2023-03-05T02:17:11.153Z,56.68
2023-03-05T02:19:48.776Z,56.74
2023-03-05T02:22:18.118Z,56.64
2023-03-05T02:24:46.855Z,56.64
2023-03-05T02:27:15.829Z,56.49
2023-03-05T02:29:46.176Z,56.40
2023-03-05T02:32:14.482Z,56.24
2023-03-05T02:34:42.677Z,56.37
2023-03-05T02:37:10.907Z,56.50
2023-03-05T02:39:40.298Z,56.42
2023-03-05T02:42:09.284Z,56.47
2023-03-05T02:44:41.420Z,56.53
2023-03-05T02:47:09.554Z,56.62
2023-03-05T02:49:39.152Z,56.53
2023-03-05T02:52:07.322Z,56.54
2023-03-05T02:54:36.409Z,56.51
2023-03-05T02:57:05.015Z,56.41
2023-03-05T02:59:33.702Z,56.16
2023-03-05T03:02:01.860Z,56.20
2023-03-05T03:04:33.356Z,56.22
2023-03-05T03:07:01.662Z,56.27
2023-03-05T03:09:29.761Z,56.23
2023-03-05T03:11:59.491Z,56.25
2023-03-05T03:14:27.588Z,55.85
2023-03-05T03:17:01.326Z,55.49
2023-03-05T03:19:29.718Z,55.43
2023-03-05T03:21:57.947Z,55.32
2023-03-05T03:24:26.558Z,55.30
2023-03-05T03:26:54.865Z,55.17
2023-03-05T03:29:23.342Z,54.87
2023-03-05T03:31:51.511Z,54.72
2023-03-05T03:34:25.253Z,54.82
2023-03-05T03:36:53.523Z,54.67
2023-03-05T03:39:21.642Z,54.47
2023-03-05T03:41:51.744Z,54.71
2023-03-05T03:44:20.416Z,54.96
2023-03-05T03:46:49.325Z,55.13
2023-03-05T03:49:22.447Z,54.97
2023-03-05T03:51:51.349Z,54.92
2023-03-05T03:54:19.346Z,54.94
2023-03-05T03:56:50.191Z,54.93
2023-03-05T03:59:18.602Z,54.80
2023-03-05T04:01:47.323Z,54.75
2023-03-05T04:04:15.571Z,54.75
2023-03-05T04:06:43.704Z,54.88
2023-03-05T04:09:14.177Z,54.95
2023-03-05T04:11:43.333Z,55.00
2023-03-05T04:14:11.446Z,55.10
2023-03-05T04:16:43.125Z,55.01
2023-03-05T04:19:12.208Z,54.75
2023-03-05T04:21:40.257Z,54.57
2023-03-05T04:24:09.165Z,54.46
2023-03-05T04:26:37.347Z,54.55
2023-03-05T04:29:05.425Z,54.42
2023-03-05T04:31:33.529Z,54.40
2023-03-05T04:34:02.229Z,54.33
2023-03-05T04:36:30.355Z,54.24
2023-03-05T04:38:58.383Z,54.12
2023-03-05T04:41:26.543Z,53.98
2023-03-05T04:43:54.600Z,53.83
2023-03-05T04:46:22.750Z,53.72
2023-03-05T04:48:50.829Z,53.56
2023-03-05T04:51:18.884Z,53.39
2023-03-05T04:53:47.314Z,53.29
2023-03-05T04:56:19.366Z,53.56
2023-03-05T04:58:47.727Z,53.37
2023-03-05T05:01:15.844Z,53.37
2023-03-05T05:03:49.409Z,53.60
2023-03-05T05:06:17.567Z,53.61
2023-03-05T05:08:45.683Z,53.57
2023-03-05T05:11:14.456Z,53.50
2023-03-05T05:13:43.930Z,53.50
2023-03-05T05:16:12.528Z,53.58
2023-03-05T05:18:40.704Z,53.76
2023-03-05T05:21:10.877Z,54.06
2023-03-05T05:23:39.068Z,54.05
2023-03-05T05:26:14.340Z,53.79
2023-03-05T05:28:43.701Z,53.59
2023-03-05T05:31:14.063Z,53.49
2023-03-05T05:33:42.735Z,53.54
2023-03-05T05:36:13.129Z,53.68
2023-03-05T05:38:41.902Z,53.87
2023-03-05T05:41:14.323Z,53.80
2023-03-05T05:43:42.591Z,53.74
2023-03-05T05:46:13.231Z,53.83
2023-03-05T05:48:41.424Z,54.09
2023-03-05T05:51:17.459Z,54.06
2023-03-05T05:53:46.728Z,54.07
2023-03-05T05:56:16.648Z,54.11
2023-03-05T05:58:51.655Z,54.08
2023-03-05T06:01:26.527Z,54.08
2023-03-05T06:03:56.271Z,54.11
2023-03-05T06:06:27.761Z,54.05
2023-03-05T06:08:55.866Z,54.02
2023-03-05T06:11:23.984Z,53.87
2023-03-05T06:13:52.774Z,53.85
2023-03-05T06:16:24.135Z,53.82
2023-03-05T06:18:52.565Z,53.97
2023-03-05T06:21:21.061Z,54.12
2023-03-05T06:23:49.807Z,54.10
2023-03-05T06:26:20.506Z,53.89
2023-03-05T06:28:49.458Z,53.63
2023-03-05T06:31:19.525Z,53.30
2023-03-05T06:33:48.997Z,53.00
2023-03-05T06:36:18.588Z,52.46
2023-03-05T06:38:49.096Z,52.06
2023-03-05T06:41:19.077Z,51.97
2023-03-05T06:43:47.834Z,52.02
2023-03-05T06:46:23.710Z,51.91
2023-03-05T06:48:57.251Z,51.52
2023-03-05T06:51:28.174Z,51.45
2023-03-05T06:53:56.521Z,51.56
2023-03-05T06:56:24.648Z,51.54
2023-03-05T06:58:53.260Z,51.58
2023-03-05T07:01:24.560Z,51.54
2023-03-05T07:03:53.731Z,51.37
2023-03-05T07:06:22.105Z,51.38
2023-03-05T07:08:51.072Z,51.43
2023-03-05T07:11:20.285Z,51.23
2023-03-05T07:13:51.746Z,51.17
2023-03-05T07:16:24.743Z,51.11
2023-03-05T07:18:53.008Z,51.22
2023-03-05T07:21:22.521Z,50.99
2023-03-05T07:23:53.430Z,50.61
2023-03-05T07:26:22.491Z,50.35
2023-03-05T07:31:47.908Z,49.87
2023-03-05T07:34:16.052Z,49.91
2023-03-05T07:36:45.272Z,49.57
2023-03-05T07:39:13.459Z,49.34
2023-03-05T07:41:41.523Z,49.27
2023-03-05T07:44:10.407Z,49.11
2023-03-05T07:46:38.594Z,48.86
2023-03-05T07:49:06.707Z,48.79
2023-03-05T07:51:35.843Z,48.98
2023-03-05T07:54:04.629Z,49.09
2023-03-05T07:56:35.595Z,49.28
2023-03-05T07:59:08.904Z,49.26
2023-03-05T08:01:38.084Z,49.15
2023-03-05T08:04:06.682Z,49.12
2023-03-05T08:06:35.454Z,49.02
2023-03-05T08:09:03.565Z,48.69
2023-03-05T08:11:31.684Z,48.75
2023-03-05T08:14:01.178Z,48.76
2023-03-05T08:16:29.602Z,48.61
2023-03-05T08:18:59.883Z,48.69
2023-03-05T08:21:30.536Z,48.79
2023-03-05T08:23:58.877Z,48.88
2023-03-05T08:26:30.340Z,48.66
2023-03-05T08:28:58.885Z,48.80
2023-03-05T08:31:28.041Z,48.56
2023-03-05T08:33:56.752Z,48.72
2023-03-05T08:36:25.003Z,48.85
2023-03-05T08:38:53.583Z,48.69
2023-03-05T08:41:22.112Z,48.30
2023-03-05T08:43:54.503Z,48.28
2023-03-05T08:46:22.627Z,48.58
2023-03-05T08:48:50.738Z,48.87
2023-03-05T08:51:23.646Z,48.88
2023-03-05T08:53:52.134Z,48.89
2023-03-05T08:56:26.402Z,48.70
2023-03-05T08:58:54.633Z,48.70
2023-03-05T09:01:24.114Z,48.84
2023-03-05T09:03:53.048Z,49.12
2023-03-05T09:06:21.402Z,48.96
2023-03-05T09:08:51.833Z,49.07
2023-03-05T09:11:22.073Z,49.18
2023-03-05T09:13:50.142Z,49.03
2023-03-05T09:16:20.005Z,48.75
2023-03-05T09:18:49.214Z,48.81
2023-03-05T09:21:18.493Z,49.16
2023-03-05T09:23:49.403Z,49.25
2023-03-05T09:26:21.367Z,49.32
2023-03-05T09:28:49.688Z,49.38
2023-03-05T09:31:18.211Z,49.08
2023-03-05T09:33:48.149Z,49.09
2023-03-05T09:36:24.446Z,49.11
2023-03-05T09:38:52.626Z,49.07
2023-03-05T09:41:30.416Z,49.12
2023-03-05T09:44:23.891Z,49.26
2023-03-05T09:47:35.659Z,49.27
2023-03-05T09:50:06.412Z,49.20
2023-03-05T09:52:55.553Z,49.41
2023-03-05T09:55:26.256Z,49.44
2023-03-05T09:57:56.848Z,49.51
2023-03-05T10:00:27.897Z,49.52
2023-03-05T10:02:58.592Z,49.69
2023-03-05T10:05:47.089Z,49.75
2023-03-05T10:08:16.158Z,49.85
2023-03-05T10:10:47.180Z,49.86
2023-03-05T10:13:21.595Z,50.10
2023-03-05T10:16:21.247Z,50.10
2023-03-05T10:19:15.734Z,49.91
2023-03-05T10:22:07.486Z,49.77
2023-03-05T10:24:44.304Z,49.89
2023-03-05T10:27:22.012Z,49.78
2023-03-05T10:29:50.389Z,49.66
2023-03-05T10:32:22.517Z,49.53
2023-03-05T10:34:56.120Z,49.91
2023-03-05T10:37:36.582Z,50.12
2023-03-05T10:40:11.065Z,50.16
2023-03-05T10:43:18.302Z,50.01
2023-03-05T10:45:53.768Z,50.16
2023-03-05T10:48:40.377Z,50.48
2023-03-05T10:51:34.395Z,50.65
2023-03-05T10:54:25.410Z,50.71
2023-03-05T10:57:21.421Z,50.94
2023-03-05T11:00:19.710Z,51.49
2023-03-05T11:03:01.050Z,51.92
2023-03-05T11:05:38.513Z,51.45
2023-03-05T11:08:28.608Z,51.04
2023-03-05T11:11:17.036Z,50.39
2023-03-05T11:13:58.881Z,50.29
2023-03-05T11:16:34.868Z,50.39
2023-03-05T11:19:18.840Z,49.80
2023-03-05T11:22:02.467Z,49.69
2023-03-05T11:24:31.031Z,49.41
2023-03-05T11:26:59.660Z,48.94
2023-03-05T11:29:30.098Z,48.64
2023-03-05T11:32:20.472Z,48.60
2023-03-05T11:34:48.557Z,48.64
2023-03-05T11:37:34.763Z,48.34
2023-03-05T11:40:19.806Z,48.26
2023-03-05T11:42:54.586Z,48.27
2023-03-05T11:45:22.884Z,48.43
2023-03-05T11:48:32.741Z,48.05
2023-03-05T11:51:04.084Z,47.89
2023-03-05T11:53:35.719Z,47.91
2023-03-05T11:56:11.482Z,47.87
2023-03-05T11:58:57.568Z,47.52
2023-03-05T12:01:27.075Z,47.33
2023-03-05T12:03:55.920Z,47.51
2023-03-05T12:06:29.054Z,47.19
2023-03-05T12:09:00.193Z,47.05
2023-03-05T12:11:30.535Z,46.71
2023-03-05T12:14:24.909Z,46.86
2023-03-05T12:17:10.656Z,46.80
2023-03-05T12:19:45.041Z,46.62
2023-03-05T12:22:19.277Z,46.62
2023-03-05T12:24:47.647Z,46.66
2023-03-05T12:27:35.373Z,46.96
2023-03-05T12:30:05.225Z,47.05
2023-03-05T12:32:35.225Z,46.82
2023-03-05T12:35:22.646Z,46.78
2023-03-05T12:37:51.890Z,46.87
2023-03-05T12:40:24.541Z,46.94
2023-03-05T12:43:06.189Z,47.03
2023-03-05T12:45:39.499Z,47.08
2023-03-05T12:48:12.362Z,47.09
2023-03-05T12:50:40.535Z,47.37
2023-03-05T12:53:12.004Z,47.40
2023-03-05T12:55:49.140Z,47.59
2023-03-05T12:58:26.028Z,47.57
2023-03-05T13:01:00.388Z,47.54
2023-03-05T13:03:34.463Z,47.68
2023-03-05T13:06:05.762Z,47.61
2023-03-05T13:08:36.164Z,47.87
2023-03-05T13:11:05.405Z,47.88
2023-03-05T13:13:41.921Z,47.88
2023-03-05T13:16:37.576Z,47.87
2023-03-05T13:19:15.562Z,47.96
2023-03-05T13:21:44.637Z,47.76
2023-03-05T13:24:19.021Z,47.91
2023-03-05T13:26:49.116Z,47.84
2023-03-05T13:29:17.970Z,47.76
2023-03-05T13:31:59.023Z,47.90
2023-03-05T13:34:44.527Z,48.07
2023-03-05T13:37:19.340Z,47.78
2023-03-05T13:40:12.061Z,47.87
2023-03-05T13:42:40.286Z,47.77
2023-03-05T13:45:28.250Z,47.90
2023-03-05T13:47:59.804Z,47.94
2023-03-05T13:50:31.051Z,47.71
2023-03-05T13:53:21.011Z,47.65
2023-03-05T13:55:53.637Z,47.57
2023-03-05T13:58:48.266Z,47.50
2023-03-05T14:01:43.942Z,47.38
2023-03-05T14:04:15.639Z,47.21
2023-03-05T14:06:55.002Z,47.11
2023-03-05T14:09:24.200Z,47.18
2023-03-05T14:12:04.069Z,47.31
2023-03-05T14:14:52.001Z,47.30
2023-03-05T14:17:30.510Z,47.23
2023-03-05T14:20:23.197Z,47.35
2023-03-05T14:22:53.655Z,47.31
2023-03-05T14:25:35.094Z,47.57
2023-03-05T14:28:05.200Z,47.73
2023-03-05T14:30:36.493Z,47.91
2023-03-05T14:33:05.166Z,47.99
2023-03-05T14:35:34.221Z,48.02
2023-03-05T14:38:02.584Z,48.18
2023-03-05T14:40:34.939Z,48.19
2023-03-05T14:43:04.788Z,48.08
2023-03-05T14:45:37.721Z,48.03
2023-03-05T14:48:07.099Z,48.00
2023-03-05T14:50:37.550Z,48.11
2023-03-05T14:53:22.853Z,48.23
2023-03-05T14:55:57.001Z,48.52
2023-03-05T14:58:28.835Z,48.56
2023-03-05T15:00:57.194Z,48.62
2023-03-05T15:03:25.499Z,48.54
2023-03-05T15:05:56.523Z,48.48
2023-03-05T15:08:29.518Z,48.50
2023-03-05T15:10:58.065Z,48.59
2023-03-05T15:13:27.783Z,48.52
2023-03-05T15:15:56.016Z,48.50
2023-03-05T15:18:26.312Z,48.52
2023-03-05T15:20:57.177Z,48.69
2023-03-05T15:23:25.169Z,48.73
2023-03-05T15:25:53.325Z,48.70
2023-03-05T15:28:22.410Z,48.78
2023-03-05T15:30:51.118Z,48.83
2023-03-05T15:33:19.852Z,48.96
2023-03-05T15:35:47.922Z,49.11
2023-03-05T15:38:16.978Z,49.16
2023-03-05T15:40:46.174Z,49.16
2023-03-05T15:43:14.686Z,49.26
2023-03-05T15:45:42.816Z,49.23
2023-03-05T15:48:15.537Z,49.42
2023-03-05T15:50:45.425Z,49.54
2023-03-05T15:53:15.797Z,49.59
2023-03-05T15:55:45.255Z,49.80
2023-03-05T15:58:15.454Z,49.91
2023-03-05T16:00:47.701Z,50.02
2023-03-05T16:03:16.347Z,50.01
2023-03-05T16:05:44.740Z,50.12
2023-03-05T16:08:14.865Z,50.43
2023-03-05T16:10:43.070Z,50.67
2023-03-05T16:13:14.383Z,50.49
2023-03-05T16:15:43.890Z,50.52
2023-03-05T16:18:14.412Z,50.65
2023-03-05T16:20:47.802Z,50.66
2023-03-05T16:23:16.055Z,50.74
2023-03-05T16:25:47.676Z,50.79
2023-03-05T16:28:16.364Z,50.82
2023-03-05T16:30:46.537Z,51.03
2023-03-05T16:33:19.157Z,51.19
2023-03-05T16:35:47.611Z,51.33
2023-03-05T16:38:15.954Z,51.42
2023-03-05T16:41:06.865Z,51.42
2023-03-05T16:43:32.848Z,51.47
2023-03-05T16:46:01.341Z,51.49
2023-03-05T16:48:29.938Z,51.65
2023-03-05T16:51:00.691Z,51.88
2023-03-05T16:53:28.908Z,52.54
2023-03-05T16:55:56.942Z,53.26
2023-03-05T16:58:25.003Z,53.99
2023-03-05T17:00:53.092Z,54.96
2023-03-05T17:03:21.395Z,55.75
2023-03-05T17:05:49.698Z,56.54
2023-03-05T17:08:18.072Z,56.96
2023-03-05T17:10:46.129Z,57.77
2023-03-05T17:13:16.298Z,58.59
2023-03-05T17:15:46.046Z,59.01
2023-03-05T17:18:14.150Z,59.38
2023-03-05T17:20:42.875Z,59.75
2023-03-05T17:23:11.018Z,59.96
2023-03-05T17:25:42.300Z,60.48
2023-03-05T17:28:11.445Z,61.18
2023-03-05T17:30:41.175Z,61.63
2023-03-05T17:33:10.779Z,61.91
2023-03-05T17:35:39.529Z,62.27
2023-03-05T17:38:08.025Z,62.68
2023-03-05T17:40:36.750Z,63.15
2023-03-05T17:45:21.348Z,64.21
2023-03-05T17:47:50.870Z,64.58
2023-03-05T17:50:21.639Z,65.23
2023-03-05T17:52:49.912Z,65.46
2023-03-05T17:55:18.873Z,65.51
2023-03-05T17:57:48.034Z,65.50
2023-03-05T18:00:23.894Z,65.77
2023-03-05T18:02:52.388Z,65.70
2023-03-05T18:05:21.753Z,65.73
2023-03-05T18:07:50.507Z,65.78
2023-03-05T18:10:20.027Z,65.84
2023-03-05T18:12:49.340Z,65.94
2023-03-05T18:15:18.383Z,65.89
2023-03-05T18:17:46.540Z,66.01
2023-03-05T18:20:31.224Z,66.07
2023-03-05T18:23:00.558Z,66.01
2023-03-05T18:25:31.664Z,65.84
2023-03-05T18:28:02.039Z,65.84
2023-03-05T18:30:30.703Z,65.98
2023-03-05T18:33:01.665Z,66.10
2023-03-05T18:35:30.594Z,66.23
2023-03-05T18:37:58.698Z,66.54
2023-03-05T18:40:28.843Z,66.60
2023-03-05T18:42:59.710Z,66.47
2023-03-05T18:45:32.530Z,66.49
2023-03-05T18:48:00.759Z,66.58
2023-03-05T18:50:29.684Z,66.47
2023-03-05T18:52:57.792Z,66.56
2023-03-05T18:55:27.761Z,66.49
2023-03-05T18:57:56.344Z,66.49
2023-03-05T19:00:26.576Z,66.25
2023-03-05T19:02:55.161Z,66.16
2023-03-05T19:05:26.248Z,66.21
2023-03-05T19:07:57.574Z,66.18
2023-03-05T19:10:27.023Z,66.17
2023-03-05T19:13:18.742Z,66.31
2023-03-05T19:15:53.660Z,66.29
2023-03-05T19:18:23.529Z,66.36
2023-03-05T19:20:55.750Z,66.34
2023-03-05T19:23:23.826Z,66.28
2023-03-05T19:25:51.943Z,66.20
2023-03-05T19:28:21.361Z,66.19
2023-03-05T19:30:49.984Z,66.14
2023-03-05T19:33:24.982Z,66.16
2023-03-05T19:35:54.958Z,66.27
2023-03-05T19:38:23.284Z,66.43
2023-03-05T19:40:51.296Z,66.46
2023-03-05T19:43:19.796Z,66.52
2023-03-05T19:45:47.835Z,66.64
2023-03-05T19:48:16.938Z,66.76
2023-03-05T19:50:45.024Z,66.85
2023-03-05T19:53:13.320Z,66.86
2023-03-05T19:55:41.394Z,66.96
2023-03-05T19:58:10.101Z,66.91
2023-03-05T20:00:38.445Z,66.90
2023-03-05T20:03:09.291Z,66.95
2023-03-05T20:05:37.305Z,66.94
2023-03-05T20:08:05.368Z,66.95
2023-03-05T20:10:34.868Z,66.96
2023-03-05T20:13:03.114Z,67.03
2023-03-05T20:15:32.553Z,67.11
2023-03-05T20:18:00.737Z,67.00
2023-03-05T20:20:31.100Z,66.87
2023-03-05T20:22:59.132Z,66.94
2023-03-05T20:25:27.168Z,66.93
2023-03-05T20:27:55.192Z,67.05
2023-03-05T20:30:23.334Z,67.06
2023-03-05T20:32:51.714Z,67.09
2023-03-05T20:35:20.350Z,67.08
2023-03-05T20:38:00.313Z,66.97
2023-03-05T20:40:28.388Z,66.78
2023-03-05T20:42:56.422Z,66.80
2023-03-05T20:45:25.292Z,66.82
2023-03-05T20:47:54.006Z,66.81
2023-03-05T20:50:23.811Z,66.84
2023-03-05T20:52:51.920Z,66.92
2023-03-05T20:55:19.989Z,66.87
2023-03-05T20:57:48.238Z,66.75
2023-03-05T21:00:16.914Z,66.70
2023-03-05T21:02:45.078Z,66.56
2023-03-05T21:05:14.661Z,66.56
2023-03-05T21:07:42.815Z,66.58
2023-03-05T21:10:14.266Z,66.54
2023-03-05T21:12:46.557Z,66.55
2023-03-05T21:15:17.886Z,66.57
2023-03-05T21:17:46.305Z,66.51
2023-03-05T21:20:17.392Z,66.38
2023-03-05T21:22:45.387Z,66.49
2023-03-05T21:25:25.065Z,66.52
2023-03-05T21:27:58.174Z,66.50
2023-03-05T21:30:31.737Z,66.52
2023-03-05T21:33:02.075Z,66.43
2023-03-05T21:35:36.762Z,66.31
2023-03-05T21:38:06.119Z,66.15
2023-03-05T21:40:35.606Z,65.95
2023-03-05T21:43:03.967Z,65.93
2023-03-05T21:45:32.114Z,65.88
2023-03-05T21:48:01.368Z,65.90
2023-03-05T21:50:29.724Z,65.84
2023-03-05T21:52:59.014Z,65.78
2023-03-05T21:55:33.105Z,65.87
2023-03-05T21:58:01.565Z,65.93
2023-03-05T22:00:29.739Z,65.91
2023-03-05T22:02:58.922Z,65.74
2023-03-05T22:05:26.938Z,65.79
2023-03-05T22:07:55.523Z,65.76
2023-03-05T22:10:23.674Z,65.78
2023-03-05T22:13:05.893Z,65.85
2023-03-05T22:15:34.149Z,65.89
2023-03-05T22:18:04.050Z,65.93
2023-03-05T22:20:35.154Z,66.00
2023-03-05T22:23:04.103Z,66.00
2023-03-05T22:25:34.801Z,65.79
2023-03-05T22:28:04.128Z,65.75
2023-03-05T22:30:32.792Z,65.85
2023-03-05T22:33:01.398Z,66.04
2023-03-05T22:35:34.055Z,65.93
2023-03-05T22:38:02.498Z,65.98
2023-03-05T22:40:30.844Z,65.94
2023-03-05T22:42:59.916Z,66.01
2023-03-05T22:45:28.402Z,65.87
2023-03-05T22:47:56.852Z,65.76
2023-03-05T22:50:25.518Z,65.82
2023-03-05T22:52:55.178Z,65.83
2023-03-05T22:55:23.300Z,65.96
2023-03-05T22:57:51.339Z,66.04
2023-03-05T23:00:23.771Z,66.17
2023-03-05T23:02:51.888Z,66.14
2023-03-05T23:05:20.051Z,66.13
2023-03-05T23:07:48.381Z,66.09
2023-03-05T23:10:20.318Z,66.21
2023-03-05T23:12:50.226Z,66.28
2023-03-05T23:15:23.729Z,66.38
2023-03-05T23:17:53.785Z,66.55
2023-03-05T23:20:23.615Z,66.55
2023-03-05T23:22:56.209Z,66.64
2023-03-05T23:25:25.948Z,66.63
2023-03-05T23:27:54.109Z,66.55
2023-03-05T23:30:25.887Z,66.71
2023-03-05T23:32:55.634Z,66.79
2023-03-05T23:35:34.205Z,66.86
2023-03-05T23:38:08.488Z,66.98
2023-03-05T23:40:38.275Z,67.08
2023-03-05T23:43:06.386Z,67.10
2023-03-05T23:45:43.921Z,67.10
2023-03-05T23:48:12.638Z,67.12
2023-03-05T23:50:42.075Z,67.31
2023-03-05T23:53:21.768Z,67.40
2023-03-05T23:55:50.931Z,67.55
2023-03-05T23:58:23.682Z,67.54
